sensor_id;sensor_type;location;lat;lon;timestamp;P1;durP1;ratioP1;P2;durP2;ratioP2
2644;SDS011;15377;48.540;9.268;2023-11-18T00:00:18;8.10;;;3.90;;
2644;SDS011;15377;48.540;9.268;2023-11-18T00:02:44;8.32;;;4.15;;
2644;SDS011;15377;48.540;9.268;2023-11-18T00:05:11;8.38;;;4.38;;
2644;SDS011;15377;48.540;9.268;2023-11-18T00:07:36;9.33;;;4.77;;
2644;SDS011;15377;48.540;9.268;2023-11-18T00:10:02;7.90;;;4.00;;
2644;SDS011;15377;48.540;9.268;2023-11-18T00:12:29;8.55;;;3.95;;
2644;SDS011;15377;48.540;9.268;2023-11-18T00:14:54;8.80;;;4.37;;
2644;SDS011;15377;48.540;9.268;2023-11-18T00:17:20;7.87;;;4.00;;
2644;SDS011;15377;48.540;9.268;2023-11-18T00:19:45;8.90;;;4.40;;
2644;SDS011;15377;48.540;9.268;2023-11-18T00:22:11;7.70;;;3.60;;
2644;SDS011;15377;48.540;9.268;2023-11-18T00:24:36;9.17;;;4.00;;
2644;SDS011;15377;48.540;9.268;2023-11-18T00:27:03;9.40;;;4.10;;
2644;SDS011;15377;48.540;9.268;2023-11-18T00:29:31;10.45;;;4.22;;
2644;SDS011;15377;48.540;9.268;2023-11-18T00:31:58;8.02;;;3.90;;
2644;SDS011;15377;48.540;9.268;2023-11-18T00:34:24;7.67;;;3.50;;
2644;SDS011;15377;48.540;9.268;2023-11-18T00:36:49;9.00;;;4.00;;
2644;SDS011;15377;48.540;9.268;2023-11-18T00:39:14;8.43;;;4.30;;
2644;SDS011;15377;48.540;9.268;2023-11-18T00:41:39;9.13;;;3.80;;
2644;SDS011;15377;48.540;9.268;2023-11-18T00:44:05;8.20;;;4.20;;
2644;SDS011;15377;48.540;9.268;2023-11-18T00:46:32;10.27;;;3.70;;
2644;SDS011;15377;48.540;9.268;2023-11-18T00:49:00;8.68;;;4.32;;
2644;SDS011;15377;48.540;9.268;2023-11-18T00:51:26;10.03;;;4.20;;
2644;SDS011;15377;48.540;9.268;2023-11-18T00:53:52;10.55;;;4.47;;
2644;SDS011;15377;48.540;9.268;2023-11-18T00:56:19;8.75;;;4.35;;
2644;SDS011;15377;48.540;9.268;2023-11-18T00:58:46;9.25;;;4.38;;
2644;SDS011;15377;48.540;9.268;2023-11-18T01:01:13;8.40;;;3.97;;
2644;SDS011;15377;48.540;9.268;2023-11-18T01:03:42;9.23;;;4.28;;
2644;SDS011;15377;48.540;9.268;2023-11-18T01:06:11;10.65;;;4.28;;
2644;SDS011;15377;48.540;9.268;2023-11-18T01:08:37;8.90;;;4.23;;
2644;SDS011;15377;48.540;9.268;2023-11-18T01:11:02;8.97;;;3.87;;
2644;SDS011;15377;48.540;9.268;2023-11-18T01:13:29;8.68;;;4.07;;
2644;SDS011;15377;48.540;9.268;2023-11-18T01:15:55;9.70;;;4.00;;
2644;SDS011;15377;48.540;9.268;2023-11-18T01:18:20;8.87;;;4.53;;
2644;SDS011;15377;48.540;9.268;2023-11-18T01:20:45;8.60;;;4.57;;
2644;SDS011;15377;48.540;9.268;2023-11-18T01:23:12;8.85;;;3.60;;
2644;SDS011;15377;48.540;9.268;2023-11-18T01:25:37;8.67;;;4.33;;
2644;SDS011;15377;48.540;9.268;2023-11-18T01:28:05;9.23;;;4.25;;
2644;SDS011;15377;48.540;9.268;2023-11-18T01:30:30;8.80;;;3.90;;
2644;SDS011;15377;48.540;9.268;2023-11-18T01:32:56;8.67;;;4.20;;
2644;SDS011;15377;48.540;9.268;2023-11-18T01:35:21;7.90;;;3.87;;
2644;SDS011;15377;48.540;9.268;2023-11-18T01:37:50;7.53;;;3.75;;
2644;SDS011;15377;48.540;9.268;2023-11-18T01:40:16;10.30;;;3.70;;
2644;SDS011;15377;48.540;9.268;2023-11-18T01:42:43;8.52;;;4.10;;
2644;SDS011;15377;48.540;9.268;2023-11-18T01:45:08;8.00;;;3.50;;
2644;SDS011;15377;48.540;9.268;2023-11-18T01:47:36;8.57;;;3.53;;
2644;SDS011;15377;48.540;9.268;2023-11-18T01:50:02;9.40;;;4.20;;
2644;SDS011;15377;48.540;9.268;2023-11-18T01:52:31;8.25;;;3.92;;
2644;SDS011;15377;48.540;9.268;2023-11-18T01:54:56;8.10;;;4.53;;
2644;SDS011;15377;48.540;9.268;2023-11-18T01:57:23;8.73;;;4.35;;
2644;SDS011;15377;48.540;9.268;2023-11-18T01:59:51;8.00;;;3.95;;
2644;SDS011;15377;48.540;9.268;2023-11-18T02:02:17;8.43;;;4.50;;
2644;SDS011;15377;48.540;9.268;2023-11-18T02:04:45;10.85;;;4.30;;
2644;SDS011;15377;48.540;9.268;2023-11-18T02:07:11;8.83;;;4.27;;
2644;SDS011;15377;48.540;9.268;2023-11-18T02:09:40;8.90;;;4.60;;
2644;SDS011;15377;48.540;9.268;2023-11-18T02:14:49;8.25;;;4.43;;
2644;SDS011;15377;48.540;9.268;2023-11-18T02:17:17;8.30;;;4.38;;
2644;SDS011;15377;48.540;9.268;2023-11-18T02:19:45;9.88;;;4.80;;
2644;SDS011;15377;48.540;9.268;2023-11-18T02:22:11;10.70;;;4.43;;
2644;SDS011;15377;48.540;9.268;2023-11-18T02:24:37;8.77;;;4.05;;
2644;SDS011;15377;48.540;9.268;2023-11-18T02:27:03;8.23;;;4.40;;
2644;SDS011;15377;48.540;9.268;2023-11-18T02:29:36;10.00;;;6.63;;
2644;SDS011;15377;48.540;9.268;2023-11-18T02:35:09;8.70;;;4.30;;
2644;SDS011;15377;48.540;9.268;2023-11-18T02:37:46;8.27;;;4.15;;
2644;SDS011;15377;48.540;9.268;2023-11-18T02:40:26;9.73;;;4.70;;
2644;SDS011;15377;48.540;9.268;2023-11-18T02:43:00;8.70;;;4.07;;
2644;SDS011;15377;48.540;9.268;2023-11-18T02:45:30;9.98;;;5.18;;
2644;SDS011;15377;48.540;9.268;2023-11-18T02:47:57;9.50;;;3.90;;
2644;SDS011;15377;48.540;9.268;2023-11-18T02:50:25;8.13;;;4.10;;
2644;SDS011;15377;48.540;9.268;2023-11-18T02:52:52;9.27;;;4.30;;
2644;SDS011;15377;48.540;9.268;2023-11-18T02:55:18;8.30;;;4.20;;
2644;SDS011;15377;48.540;9.268;2023-11-18T02:57:43;10.60;;;5.10;;
2644;SDS011;15377;48.540;9.268;2023-11-18T03:00:09;9.00;;;4.57;;
2644;SDS011;15377;48.540;9.268;2023-11-18T03:02:42;9.50;;;4.50;;
2644;SDS011;15377;48.540;9.268;2023-11-18T03:05:07;9.53;;;4.57;;
2644;SDS011;15377;48.540;9.268;2023-11-18T03:07:36;9.25;;;5.05;;
2644;SDS011;15377;48.540;9.268;2023-11-18T03:10:02;9.13;;;4.53;;
2644;SDS011;15377;48.540;9.268;2023-11-18T03:12:28;9.00;;;4.65;;
2644;SDS011;15377;48.540;9.268;2023-11-18T03:14:53;8.90;;;4.50;;
2644;SDS011;15377;48.540;9.268;2023-11-18T03:17:19;9.33;;;4.63;;
2644;SDS011;15377;48.540;9.268;2023-11-18T03:19:45;9.88;;;4.70;;
2644;SDS011;15377;48.540;9.268;2023-11-18T03:22:11;8.03;;;4.00;;
2644;SDS011;15377;48.540;9.268;2023-11-18T03:24:38;8.60;;;4.75;;
2644;SDS011;15377;48.540;9.268;2023-11-18T03:27:04;7.73;;;3.90;;
2644;SDS011;15377;48.540;9.268;2023-11-18T03:29:29;7.90;;;4.17;;
2644;SDS011;15377;48.540;9.268;2023-11-18T03:31:54;9.30;;;4.57;;
2644;SDS011;15377;48.540;9.268;2023-11-18T03:34:20;9.80;;;4.00;;
2644;SDS011;15377;48.540;9.268;2023-11-18T03:36:46;8.40;;;4.43;;
2644;SDS011;15377;48.540;9.268;2023-11-18T03:39:12;9.07;;;4.53;;
2644;SDS011;15377;48.540;9.268;2023-11-18T03:41:37;10.80;;;5.27;;
2644;SDS011;15377;48.540;9.268;2023-11-18T03:44:03;12.40;;;5.23;;
2644;SDS011;15377;48.540;9.268;2023-11-18T03:46:29;8.45;;;3.95;;
2644;SDS011;15377;48.540;9.268;2023-11-18T03:48:58;8.80;;;4.10;;
2644;SDS011;15377;48.540;9.268;2023-11-18T03:51:23;9.43;;;4.97;;
2644;SDS011;15377;48.540;9.268;2023-11-18T03:53:49;10.47;;;4.20;;
2644;SDS011;15377;48.540;9.268;2023-11-18T03:56:18;9.40;;;4.65;;
2644;SDS011;15377;48.540;9.268;2023-11-18T03:58:44;10.85;;;4.75;;
2644;SDS011;15377;48.540;9.268;2023-11-18T04:01:18;11.98;;;5.57;;
2644;SDS011;15377;48.540;9.268;2023-11-18T04:03:48;10.05;;;4.93;;
2644;SDS011;15377;48.540;9.268;2023-11-18T04:06:14;10.50;;;4.60;;
2644;SDS011;15377;48.540;9.268;2023-11-18T04:08:44;10.00;;;4.20;;
2644;SDS011;15377;48.540;9.268;2023-11-18T04:11:11;11.30;;;4.90;;
2644;SDS011;15377;48.540;9.268;2023-11-18T04:13:36;11.93;;;4.60;;
2644;SDS011;15377;48.540;9.268;2023-11-18T04:16:02;9.93;;;4.90;;
2644;SDS011;15377;48.540;9.268;2023-11-18T04:18:28;12.23;;;5.50;;
2644;SDS011;15377;48.540;9.268;2023-11-18T04:20:54;10.40;;;5.27;;
2644;SDS011;15377;48.540;9.268;2023-11-18T04:23:19;12.37;;;5.37;;
2644;SDS011;15377;48.540;9.268;2023-11-18T04:25:44;9.77;;;5.37;;
2644;SDS011;15377;48.540;9.268;2023-11-18T04:28:10;10.23;;;4.97;;
2644;SDS011;15377;48.540;9.268;2023-11-18T04:30:35;9.63;;;5.10;;
2644;SDS011;15377;48.540;9.268;2023-11-18T04:33:01;10.77;;;5.37;;
2644;SDS011;15377;48.540;9.268;2023-11-18T04:35:26;8.70;;;4.20;;
2644;SDS011;15377;48.540;9.268;2023-11-18T04:37:51;12.10;;;4.83;;
2644;SDS011;15377;48.540;9.268;2023-11-18T04:40:17;10.87;;;5.70;;
2644;SDS011;15377;48.540;9.268;2023-11-18T04:42:42;9.67;;;4.87;;
2644;SDS011;15377;48.540;9.268;2023-11-18T04:45:07;11.17;;;5.70;;
2644;SDS011;15377;48.540;9.268;2023-11-18T04:47:34;11.45;;;5.25;;
2644;SDS011;15377;48.540;9.268;2023-11-18T04:50:01;11.20;;;5.13;;
2644;SDS011;15377;48.540;9.268;2023-11-18T04:52:27;11.63;;;4.57;;
2644;SDS011;15377;48.540;9.268;2023-11-18T04:54:52;11.07;;;4.90;;
2644;SDS011;15377;48.540;9.268;2023-11-18T04:57:17;9.73;;;4.57;;
2644;SDS011;15377;48.540;9.268;2023-11-18T04:59:43;10.17;;;4.50;;
2644;SDS011;15377;48.540;9.268;2023-11-18T05:02:08;10.70;;;6.10;;
2644;SDS011;15377;48.540;9.268;2023-11-18T05:04:34;10.70;;;5.27;;
2644;SDS011;15377;48.540;9.268;2023-11-18T05:07:00;12.02;;;5.38;;
2644;SDS011;15377;48.540;9.268;2023-11-18T05:09:26;15.60;;;6.30;;
2644;SDS011;15377;48.540;9.268;2023-11-18T05:11:51;14.10;;;6.60;;
2644;SDS011;15377;48.540;9.268;2023-11-18T05:14:17;11.32;;;6.18;;
2644;SDS011;15377;48.540;9.268;2023-11-18T05:16:43;11.60;;;6.80;;
2644;SDS011;15377;48.540;9.268;2023-11-18T05:19:08;10.93;;;6.17;;
2644;SDS011;15377;48.540;9.268;2023-11-18T05:21:34;9.87;;;6.20;;
2644;SDS011;15377;48.540;9.268;2023-11-18T05:23:59;10.30;;;5.73;;
2644;SDS011;15377;48.540;9.268;2023-11-18T05:26:24;12.10;;;6.50;;
2644;SDS011;15377;48.540;9.268;2023-11-18T05:28:51;13.55;;;7.50;;
2644;SDS011;15377;48.540;9.268;2023-11-18T05:31:17;13.70;;;7.97;;
2644;SDS011;15377;48.540;9.268;2023-11-18T05:33:43;16.70;;;7.27;;
2644;SDS011;15377;48.540;9.268;2023-11-18T05:36:08;14.60;;;8.52;;
2644;SDS011;15377;48.540;9.268;2023-11-18T05:38:36;12.82;;;6.65;;
2644;SDS011;15377;48.540;9.268;2023-11-18T05:41:02;13.80;;;7.30;;
2644;SDS011;15377;48.540;9.268;2023-11-18T05:43:29;11.02;;;6.43;;
2644;SDS011;15377;48.540;9.268;2023-11-18T05:46:01;14.07;;;8.32;;
2644;SDS011;15377;48.540;9.268;2023-11-18T05:48:43;17.98;;;10.63;;
2644;SDS011;15377;48.540;9.268;2023-11-18T05:51:09;13.55;;;7.60;;
2644;SDS011;15377;48.540;9.268;2023-11-18T05:53:39;12.63;;;7.73;;
2644;SDS011;15377;48.540;9.268;2023-11-18T05:56:14;11.70;;;6.40;;
2644;SDS011;15377;48.540;9.268;2023-11-18T05:58:39;13.70;;;6.43;;
2644;SDS011;15377;48.540;9.268;2023-11-18T06:01:05;13.43;;;6.90;;
2644;SDS011;15377;48.540;9.268;2023-11-18T06:03:32;9.73;;;5.80;;
2644;SDS011;15377;48.540;9.268;2023-11-18T06:05:58;11.70;;;6.53;;
2644;SDS011;15377;48.540;9.268;2023-11-18T06:08:23;12.17;;;6.10;;
2644;SDS011;15377;48.540;9.268;2023-11-18T06:10:49;12.83;;;7.30;;
2644;SDS011;15377;48.540;9.268;2023-11-18T06:13:17;12.27;;;6.57;;
2644;SDS011;15377;48.540;9.268;2023-11-18T06:15:42;13.60;;;7.20;;
2644;SDS011;15377;48.540;9.268;2023-11-18T06:18:08;11.97;;;6.43;;
2644;SDS011;15377;48.540;9.268;2023-11-18T06:20:36;13.20;;;8.00;;
2644;SDS011;15377;48.540;9.268;2023-11-18T06:23:03;14.50;;;7.22;;
2644;SDS011;15377;48.540;9.268;2023-11-18T06:25:28;15.97;;;7.50;;
2644;SDS011;15377;48.540;9.268;2023-11-18T06:27:56;11.68;;;5.88;;
2644;SDS011;15377;48.540;9.268;2023-11-18T06:30:23;12.13;;;6.38;;
2644;SDS011;15377;48.540;9.268;2023-11-18T06:32:48;12.43;;;6.70;;
2644;SDS011;15377;48.540;9.268;2023-11-18T06:35:14;13.67;;;6.07;;
2644;SDS011;15377;48.540;9.268;2023-11-18T06:37:42;12.27;;;6.45;;
2644;SDS011;15377;48.540;9.268;2023-11-18T06:40:08;12.67;;;5.70;;
2644;SDS011;15377;48.540;9.268;2023-11-18T06:42:44;12.70;;;6.93;;
2644;SDS011;15377;48.540;9.268;2023-11-18T06:45:12;13.88;;;7.15;;
2644;SDS011;15377;48.540;9.268;2023-11-18T06:47:38;13.13;;;7.60;;
2644;SDS011;15377;48.540;9.268;2023-11-18T06:50:08;13.75;;;7.20;;
2644;SDS011;15377;48.540;9.268;2023-11-18T06:52:36;12.38;;;7.25;;
2644;SDS011;15377;48.540;9.268;2023-11-18T06:55:03;15.52;;;9.02;;
2644;SDS011;15377;48.540;9.268;2023-11-18T06:57:29;16.65;;;8.70;;
2644;SDS011;15377;48.540;9.268;2023-11-18T06:59:54;15.27;;;7.93;;
2644;SDS011;15377;48.540;9.268;2023-11-18T07:02:20;13.77;;;7.50;;
2644;SDS011;15377;48.540;9.268;2023-11-18T07:04:46;15.87;;;8.07;;
2644;SDS011;15377;48.540;9.268;2023-11-18T07:07:11;16.13;;;8.33;;
2644;SDS011;15377;48.540;9.268;2023-11-18T07:09:37;13.77;;;7.80;;
2644;SDS011;15377;48.540;9.268;2023-11-18T07:12:03;17.97;;;10.13;;
2644;SDS011;15377;48.540;9.268;2023-11-18T07:14:31;13.68;;;8.00;;
2644;SDS011;15377;48.540;9.268;2023-11-18T07:16:56;14.80;;;8.93;;
2644;SDS011;15377;48.540;9.268;2023-11-18T07:19:22;15.23;;;8.43;;
2644;SDS011;15377;48.540;9.268;2023-11-18T07:21:48;13.80;;;7.50;;
2644;SDS011;15377;48.540;9.268;2023-11-18T07:24:14;13.65;;;8.73;;
2644;SDS011;15377;48.540;9.268;2023-11-18T07:26:41;13.02;;;7.93;;
2644;SDS011;15377;48.540;9.268;2023-11-18T07:29:09;13.63;;;8.07;;
2644;SDS011;15377;48.540;9.268;2023-11-18T07:31:34;15.50;;;8.10;;
2644;SDS011;15377;48.540;9.268;2023-11-18T07:34:01;15.82;;;8.48;;
2644;SDS011;15377;48.540;9.268;2023-11-18T07:36:28;16.48;;;8.18;;
2644;SDS011;15377;48.540;9.268;2023-11-18T07:38:53;16.10;;;8.90;;
2644;SDS011;15377;48.540;9.268;2023-11-18T07:41:20;13.20;;;7.95;;
2644;SDS011;15377;48.540;9.268;2023-11-18T07:43:51;12.95;;;8.07;;
2644;SDS011;15377;48.540;9.268;2023-11-18T07:46:23;15.00;;;8.85;;
2644;SDS011;15377;48.540;9.268;2023-11-18T07:48:49;15.27;;;7.65;;
2644;SDS011;15377;48.540;9.268;2023-11-18T07:51:17;14.38;;;8.50;;
2644;SDS011;15377;48.540;9.268;2023-11-18T07:53:48;12.45;;;7.43;;
2644;SDS011;15377;48.540;9.268;2023-11-18T07:56:14;15.20;;;8.47;;
2644;SDS011;15377;48.540;9.268;2023-11-18T07:58:41;15.17;;;8.10;;
2644;SDS011;15377;48.540;9.268;2023-11-18T08:01:12;12.88;;;8.15;;
2644;SDS011;15377;48.540;9.268;2023-11-18T08:03:39;11.50;;;7.60;;
2644;SDS011;15377;48.540;9.268;2023-11-18T08:06:06;13.25;;;7.80;;
2644;SDS011;15377;48.540;9.268;2023-11-18T08:08:32;12.10;;;6.97;;
2644;SDS011;15377;48.540;9.268;2023-11-18T08:10:58;14.35;;;7.32;;
2644;SDS011;15377;48.540;9.268;2023-11-18T08:13:24;16.00;;;8.43;;
2644;SDS011;15377;48.540;9.268;2023-11-18T08:15:51;13.90;;;7.40;;
2644;SDS011;15377;48.540;9.268;2023-11-18T08:18:17;13.37;;;7.40;;
2644;SDS011;15377;48.540;9.268;2023-11-18T08:20:43;12.80;;;7.63;;
2644;SDS011;15377;48.540;9.268;2023-11-18T08:23:08;12.38;;;7.88;;
2644;SDS011;15377;48.540;9.268;2023-11-18T08:25:35;12.18;;;7.13;;
2644;SDS011;15377;48.540;9.268;2023-11-18T08:28:01;13.50;;;7.73;;
2644;SDS011;15377;48.540;9.268;2023-11-18T08:30:27;12.93;;;7.60;;
2644;SDS011;15377;48.540;9.268;2023-11-18T08:32:52;12.73;;;7.40;;
2644;SDS011;15377;48.540;9.268;2023-11-18T08:35:18;13.10;;;7.50;;
2644;SDS011;15377;48.540;9.268;2023-11-18T08:37:44;11.60;;;6.27;;
2644;SDS011;15377;48.540;9.268;2023-11-18T08:40:10;11.83;;;6.20;;
2644;SDS011;15377;48.540;9.268;2023-11-18T08:42:51;10.03;;;5.73;;
2644;SDS011;15377;48.540;9.268;2023-11-18T08:45:28;10.57;;;5.50;;
2644;SDS011;15377;48.540;9.268;2023-11-18T08:47:54;8.88;;;5.43;;
2644;SDS011;15377;48.540;9.268;2023-11-18T08:50:32;10.03;;;4.37;;
2644;SDS011;15377;48.540;9.268;2023-11-18T08:52:58;9.77;;;4.80;;
2644;SDS011;15377;48.540;9.268;2023-11-18T08:55:27;9.43;;;5.40;;
2644;SDS011;15377;48.540;9.268;2023-11-18T08:58:07;8.70;;;4.77;;
2644;SDS011;15377;48.540;9.268;2023-11-18T09:00:53;10.63;;;5.33;;
2644;SDS011;15377;48.540;9.268;2023-11-18T09:03:30;10.07;;;4.67;;
2644;SDS011;15377;48.540;9.268;2023-11-18T09:06:02;8.60;;;4.77;;
2644;SDS011;15377;48.540;9.268;2023-11-18T09:08:42;10.45;;;4.72;;
2644;SDS011;15377;48.540;9.268;2023-11-18T09:11:09;7.83;;;4.23;;
2644;SDS011;15377;48.540;9.268;2023-11-18T09:13:39;8.18;;;4.40;;
2644;SDS011;15377;48.540;9.268;2023-11-18T09:16:07;9.50;;;4.30;;
2644;SDS011;15377;48.540;9.268;2023-11-18T09:18:39;8.45;;;4.35;;
2644;SDS011;15377;48.540;9.268;2023-11-18T09:21:06;12.03;;;4.47;;
2644;SDS011;15377;48.540;9.268;2023-11-18T09:23:33;8.50;;;4.30;;
2644;SDS011;15377;48.540;9.268;2023-11-18T09:25:59;8.33;;;4.20;;
2644;SDS011;15377;48.540;9.268;2023-11-18T09:28:26;8.10;;;4.27;;
2644;SDS011;15377;48.540;9.268;2023-11-18T09:30:55;8.67;;;4.40;;
2644;SDS011;15377;48.540;9.268;2023-11-18T09:33:26;7.90;;;3.63;;
2644;SDS011;15377;48.540;9.268;2023-11-18T09:36:01;7.00;;;3.77;;
2644;SDS011;15377;48.540;9.268;2023-11-18T09:40:58;8.30;;;4.10;;
2644;SDS011;15377;48.540;9.268;2023-11-18T09:43:35;8.53;;;3.80;;
2644;SDS011;15377;48.540;9.268;2023-11-18T09:46:07;9.00;;;4.27;;
2644;SDS011;15377;48.540;9.268;2023-11-18T09:51:27;7.80;;;3.73;;
2644;SDS011;15377;48.540;9.268;2023-11-18T09:54:01;8.20;;;4.20;;
2644;SDS011;15377;48.540;9.268;2023-11-18T10:02:10;7.77;;;3.87;;
2644;SDS011;15377;48.540;9.268;2023-11-18T10:04:36;8.27;;;3.87;;
2644;SDS011;15377;48.540;9.268;2023-11-18T10:07:04;8.63;;;4.10;;
2644;SDS011;15377;48.540;9.268;2023-11-18T10:09:32;8.70;;;3.83;;
2644;SDS011;15377;48.540;9.268;2023-11-18T10:12:02;8.47;;;3.70;;
2644;SDS011;15377;48.540;9.268;2023-11-18T10:14:34;7.87;;;3.80;;
2644;SDS011;15377;48.540;9.268;2023-11-18T10:17:02;7.07;;;3.63;;
2644;SDS011;15377;48.540;9.268;2023-11-18T10:22:27;7.30;;;3.50;;
2644;SDS011;15377;48.540;9.268;2023-11-18T10:24:54;9.73;;;4.30;;
2644;SDS011;15377;48.540;9.268;2023-11-18T10:27:24;9.00;;;3.93;;
2644;SDS011;15377;48.540;9.268;2023-11-18T10:29:50;7.30;;;3.50;;
2644;SDS011;15377;48.540;9.268;2023-11-18T10:32:20;8.27;;;3.60;;
2644;SDS011;15377;48.540;9.268;2023-11-18T10:34:47;8.00;;;3.90;;
2644;SDS011;15377;48.540;9.268;2023-11-18T10:37:16;7.87;;;3.63;;
2644;SDS011;15377;48.540;9.268;2023-11-18T10:39:42;7.63;;;4.20;;
2644;SDS011;15377;48.540;9.268;2023-11-18T10:42:13;8.60;;;3.70;;
2644;SDS011;15377;48.540;9.268;2023-11-18T10:44:40;8.60;;;4.00;;
2644;SDS011;15377;48.540;9.268;2023-11-18T10:47:28;7.83;;;3.27;;
2644;SDS011;15377;48.540;9.268;2023-11-18T10:49:57;8.17;;;4.10;;
2644;SDS011;15377;48.540;9.268;2023-11-18T10:52:23;8.80;;;3.40;;
2644;SDS011;15377;48.540;9.268;2023-11-18T10:54:50;8.10;;;4.40;;
2644;SDS011;15377;48.540;9.268;2023-11-18T10:57:19;7.63;;;3.83;;
2644;SDS011;15377;48.540;9.268;2023-11-18T10:59:59;8.70;;;4.13;;
2644;SDS011;15377;48.540;9.268;2023-11-18T11:02:25;6.73;;;3.40;;
2644;SDS011;15377;48.540;9.268;2023-11-18T11:04:50;7.43;;;3.50;;
2644;SDS011;15377;48.540;9.268;2023-11-18T11:07:16;7.60;;;3.53;;
2644;SDS011;15377;48.540;9.268;2023-11-18T11:09:45;9.07;;;4.73;;
2644;SDS011;15377;48.540;9.268;2023-11-18T11:12:11;7.80;;;4.00;;
2644;SDS011;15377;48.540;9.268;2023-11-18T11:17:48;9.37;;;3.33;;
2644;SDS011;15377;48.540;9.268;2023-11-18T11:20:20;6.47;;;2.93;;
2644;SDS011;15377;48.540;9.268;2023-11-18T11:25:26;6.80;;;3.00;;
2644;SDS011;15377;48.540;9.268;2023-11-18T11:30:45;7.30;;;2.80;;
2644;SDS011;15377;48.540;9.268;2023-11-18T11:36:05;7.13;;;2.60;;
2644;SDS011;15377;48.540;9.268;2023-11-18T11:38:36;6.17;;;2.63;;
2644;SDS011;15377;48.540;9.268;2023-11-18T11:41:02;6.47;;;2.70;;
2644;SDS011;15377;48.540;9.268;2023-11-18T11:43:33;7.47;;;3.03;;
2644;SDS011;15377;48.540;9.268;2023-11-18T11:46:00;7.93;;;3.47;;
2644;SDS011;15377;48.540;9.268;2023-11-18T11:48:28;7.37;;;3.33;;
2644;SDS011;15377;48.540;9.268;2023-11-18T11:54:01;7.87;;;4.00;;
2644;SDS011;15377;48.540;9.268;2023-11-18T11:56:46;9.63;;;4.20;;
2644;SDS011;15377;48.540;9.268;2023-11-18T11:59:17;8.00;;;4.30;;
2644;SDS011;15377;48.540;9.268;2023-11-18T12:02:01;8.67;;;4.40;;
2644;SDS011;15377;48.540;9.268;2023-11-18T12:04:32;8.20;;;4.13;;
2644;SDS011;15377;48.540;9.268;2023-11-18T12:06:58;11.20;;;4.20;;
2644;SDS011;15377;48.540;9.268;2023-11-18T12:09:30;8.73;;;4.50;;
2644;SDS011;15377;48.540;9.268;2023-11-18T12:12:02;8.50;;;4.87;;
2644;SDS011;15377;48.540;9.268;2023-11-18T12:14:29;8.00;;;4.17;;
2644;SDS011;15377;48.540;9.268;2023-11-18T12:17:09;7.30;;;4.10;;
2644;SDS011;15377;48.540;9.268;2023-11-18T12:19:46;8.13;;;4.10;;
2644;SDS011;15377;48.540;9.268;2023-11-18T12:24:43;8.70;;;4.70;;
2644;SDS011;15377;48.540;9.268;2023-11-18T12:40:53;7.33;;;2.90;;
2644;SDS011;15377;48.540;9.268;2023-11-18T12:46:17;6.30;;;2.10;;
2644;SDS011;15377;48.540;9.268;2023-11-18T12:49:07;5.70;;;2.03;;
2644;SDS011;15377;48.540;9.268;2023-11-18T12:51:40;8.03;;;1.80;;
2644;SDS011;15377;48.540;9.268;2023-11-18T12:54:08;5.93;;;2.00;;
2644;SDS011;15377;48.540;9.268;2023-11-18T12:56:37;6.00;;;2.13;;
2644;SDS011;15377;48.540;9.268;2023-11-18T12:59:03;6.10;;;2.50;;
2644;SDS011;15377;48.540;9.268;2023-11-18T13:01:32;8.00;;;2.10;;
2644;SDS011;15377;48.540;9.268;2023-11-18T13:04:01;6.30;;;2.40;;
2644;SDS011;15377;48.540;9.268;2023-11-18T13:06:29;6.10;;;2.30;;
2644;SDS011;15377;48.540;9.268;2023-11-18T13:08:54;6.00;;;2.17;;
2644;SDS011;15377;48.540;9.268;2023-11-18T13:11:23;6.43;;;2.30;;
2644;SDS011;15377;48.540;9.268;2023-11-18T13:13:49;5.80;;;1.97;;
2644;SDS011;15377;48.540;9.268;2023-11-18T13:16:16;6.23;;;2.13;;
2644;SDS011;15377;48.540;9.268;2023-11-18T13:18:46;7.13;;;2.80;;
2644;SDS011;15377;48.540;9.268;2023-11-18T13:21:16;6.03;;;2.00;;
2644;SDS011;15377;48.540;9.268;2023-11-18T13:23:47;5.83;;;1.90;;
2644;SDS011;15377;48.540;9.268;2023-11-18T13:26:17;6.00;;;2.40;;
2644;SDS011;15377;48.540;9.268;2023-11-18T13:28:45;11.20;;;2.50;;
2644;SDS011;15377;48.540;9.268;2023-11-18T13:31:12;5.70;;;1.90;;
2644;SDS011;15377;48.540;9.268;2023-11-18T13:33:41;5.50;;;2.03;;
2644;SDS011;15377;48.540;9.268;2023-11-18T13:36:08;5.90;;;2.40;;
2644;SDS011;15377;48.540;9.268;2023-11-18T13:38:37;5.40;;;1.90;;
2644;SDS011;15377;48.540;9.268;2023-11-18T13:41:03;5.77;;;2.03;;
2644;SDS011;15377;48.540;9.268;2023-11-18T13:43:42;6.37;;;2.20;;
2644;SDS011;15377;48.540;9.268;2023-11-18T13:46:10;6.57;;;2.17;;
2644;SDS011;15377;48.540;9.268;2023-11-18T13:48:37;6.33;;;2.30;;
2644;SDS011;15377;48.540;9.268;2023-11-18T13:51:15;6.60;;;2.50;;
2644;SDS011;15377;48.540;9.268;2023-11-18T13:53:41;7.30;;;2.60;;
2644;SDS011;15377;48.540;9.268;2023-11-18T13:56:11;15.67;;;8.03;;
2644;SDS011;15377;48.540;9.268;2023-11-18T13:58:41;7.97;;;2.73;;
2644;SDS011;15377;48.540;9.268;2023-11-18T14:01:07;6.40;;;2.80;;
2644;SDS011;15377;48.540;9.268;2023-11-18T14:03:36;6.40;;;2.77;;
2644;SDS011;15377;48.540;9.268;2023-11-18T14:06:07;6.83;;;2.10;;
2644;SDS011;15377;48.540;9.268;2023-11-18T14:08:37;6.43;;;2.80;;
2644;SDS011;15377;48.540;9.268;2023-11-18T14:11:04;6.93;;;2.20;;
2644;SDS011;15377;48.540;9.268;2023-11-18T14:13:30;8.10;;;4.60;;
2644;SDS011;15377;48.540;9.268;2023-11-18T14:15:57;6.87;;;3.50;;
2644;SDS011;15377;48.540;9.268;2023-11-18T14:18:24;6.47;;;2.93;;
2644;SDS011;15377;48.540;9.268;2023-11-18T14:20:50;6.83;;;2.80;;
2644;SDS011;15377;48.540;9.268;2023-11-18T14:23:15;10.53;;;3.87;;
2644;SDS011;15377;48.540;9.268;2023-11-18T14:25:41;8.03;;;3.87;;
2644;SDS011;15377;48.540;9.268;2023-11-18T14:28:06;9.33;;;4.53;;
2644;SDS011;15377;48.540;9.268;2023-11-18T14:30:34;10.60;;;5.70;;
2644;SDS011;15377;48.540;9.268;2023-11-18T14:32:59;7.90;;;3.93;;
2644;SDS011;15377;48.540;9.268;2023-11-18T14:35:25;6.40;;;2.63;;
2644;SDS011;15377;48.540;9.268;2023-11-18T14:37:51;5.40;;;2.00;;
2644;SDS011;15377;48.540;9.268;2023-11-18T14:40:16;6.87;;;3.37;;
2644;SDS011;15377;48.540;9.268;2023-11-18T14:42:42;7.07;;;3.50;;
2644;SDS011;15377;48.540;9.268;2023-11-18T14:45:09;7.30;;;3.83;;
2644;SDS011;15377;48.540;9.268;2023-11-18T14:47:37;7.07;;;2.60;;
2644;SDS011;15377;48.540;9.268;2023-11-18T14:50:03;7.87;;;3.50;;
2644;SDS011;15377;48.540;9.268;2023-11-18T14:52:30;7.20;;;3.53;;
2644;SDS011;15377;48.540;9.268;2023-11-18T14:54:56;9.10;;;5.67;;
2644;SDS011;15377;48.540;9.268;2023-11-18T14:57:21;7.40;;;3.43;;
2644;SDS011;15377;48.540;9.268;2023-11-18T14:59:47;9.13;;;4.50;;
2644;SDS011;15377;48.540;9.268;2023-11-18T15:02:12;8.57;;;3.67;;
2644;SDS011;15377;48.540;9.268;2023-11-18T15:04:38;6.70;;;2.60;;
2644;SDS011;15377;48.540;9.268;2023-11-18T15:07:03;10.20;;;2.60;;
2644;SDS011;15377;48.540;9.268;2023-11-18T15:09:29;6.43;;;2.40;;
2644;SDS011;15377;48.540;9.268;2023-11-18T15:11:57;6.80;;;2.87;;
2644;SDS011;15377;48.540;9.268;2023-11-18T15:14:23;6.97;;;2.80;;
2644;SDS011;15377;48.540;9.268;2023-11-18T15:16:50;6.97;;;2.40;;
2644;SDS011;15377;48.540;9.268;2023-11-18T15:19:15;6.87;;;2.70;;
2644;SDS011;15377;48.540;9.268;2023-11-18T15:21:41;7.13;;;3.03;;
2644;SDS011;15377;48.540;9.268;2023-11-18T15:24:06;8.47;;;3.07;;
2644;SDS011;15377;48.540;9.268;2023-11-18T15:26:33;5.93;;;2.23;;
2644;SDS011;15377;48.540;9.268;2023-11-18T15:29:01;9.67;;;3.47;;
2644;SDS011;15377;48.540;9.268;2023-11-18T15:31:28;6.37;;;2.17;;
2644;SDS011;15377;48.540;9.268;2023-11-18T15:33:54;6.80;;;2.10;;
2644;SDS011;15377;48.540;9.268;2023-11-18T15:36:20;5.83;;;1.93;;
2644;SDS011;15377;48.540;9.268;2023-11-18T15:38:45;8.83;;;5.53;;
2644;SDS011;15377;48.540;9.268;2023-11-18T15:41:11;7.50;;;3.63;;
2644;SDS011;15377;48.540;9.268;2023-11-18T15:43:37;6.87;;;2.30;;
2644;SDS011;15377;48.540;9.268;2023-11-18T15:46:03;7.67;;;2.90;;
2644;SDS011;15377;48.540;9.268;2023-11-18T15:48:31;7.67;;;2.60;;
2644;SDS011;15377;48.540;9.268;2023-11-18T15:50:57;5.90;;;2.03;;